Time;durP1;ratioP1;P1;durP2;ratioP2;P2;SDS_P1;SDS_P2;PMS_P1;PMS_P2;Temp;Humidity;BMP_temperature;BMP_pressure;BME280_temperature;BME280_humidity;BME280_pressure;Samples;Min_cycle;Max_cycle;Signal;HPM_P1;HPM_P2
2023/01/06 00:01:14;;;;;;;8.85;3.05;;;11.50;94.60;;;;;;5135536;28;20045;-77
2023/01/06 00:03:40;;;;;;;7.05;2.75;;;11.50;94.60;;;;;;5135571;28;20020;-77
2023/01/06 00:06:08;;;;;;;6.15;2.70;;;11.50;94.60;;;;;;5135479;28;20031;-77
2023/01/06 00:08:35;;;;;;;6.75;2.95;;;11.50;94.50;;;;;;5134486;28;20015;-77
2023/01/06 00:11:12;;;;;;;7.45;2.22;;;11.50;94.40;;;;;;5134969;28;20075;-77
2023/01/06 00:13:38;;;;;;;7.65;3.72;;;11.50;94.40;;;;;;5135374;27;20054;-78
2023/01/06 00:16:09;;;;;;;5.88;2.65;;;11.50;94.40;;;;;;5135302;28;20027;-77
2023/01/06 00:18:35;;;;;;;7.50;2.45;;;11.50;94.40;;;;;;5134255;28;20033;-77
2023/01/06 00:21:01;;;;;;;8.38;2.78;;;11.50;94.30;;;;;;5135086;28;20063;-77
2023/01/06 00:23:27;;;;;;;6.82;2.85;;;11.50;94.40;;;;;;5117224;28;20035;-77
2023/01/06 00:25:53;;;;;;;7.88;2.20;;;11.50;94.50;;;;;;5135095;28;20020;-77
2023/01/06 00:28:18;;;;;;;7.20;2.50;;;11.50;94.40;;;;;;5133893;28;20044;-77
2023/01/06 00:30:44;;;;;;;6.47;2.88;;;11.60;94.40;;;;;;5135002;28;20050;-77
2023/01/06 00:33:10;;;;;;;7.72;2.80;;;11.60;94.40;;;;;;5116926;28;20043;-78
2023/01/06 00:35:35;;;;;;;5.57;2.78;;;11.60;94.30;;;;;;5133892;28;20035;-77
2023/01/06 00:38:01;;;;;;;6.90;2.65;;;11.60;94.40;;;;;;5133931;28;20032;-77
2023/01/06 00:40:27;;;;;;;4.80;2.50;;;11.60;94.40;;;;;;5133848;28;20028;-78
2023/01/06 00:42:53;;;;;;;4.97;2.05;;;11.60;94.40;;;;;;5134713;28;20047;-77
2023/01/06 00:45:18;;;;;;;5.07;2.70;;;11.60;94.40;;;;;;5134811;28;20020;-78
2023/01/06 00:47:44;;;;;;;7.57;2.72;;;11.60;94.40;;;;;;5133841;28;20050;-77
2023/01/06 00:50:11;;;;;;;6.72;2.58;;;11.60;94.30;;;;;;5134664;28;20030;-78
2023/01/06 00:52:36;;;;;;;4.38;1.90;;;11.60;94.30;;;;;;5133727;28;20036;-78
2023/01/06 00:55:02;;;;;;;5.50;2.97;;;11.60;94.10;;;;;;5133625;28;20036;-78
2023/01/06 00:57:28;;;;;;;6.68;2.42;;;11.60;94.20;;;;;;5134504;28;20037;-77
2023/01/06 00:59:53;;;;;;;6.82;2.35;;;11.60;94.20;;;;;;5116561;28;20020;-77
2023/01/06 01:02:20;;;;;;;4.07;2.20;;;11.60;94.10;;;;;;5133328;28;20497;-78
2023/01/06 01:04:45;;;;;;;5.05;2.10;;;11.60;93.90;;;;;;5133481;28;20012;-77
2023/01/06 01:07:11;;;;;;;4.28;1.80;;;11.60;93.60;;;;;;5133354;28;20024;-78
2023/01/06 01:09:37;;;;;;;3.28;1.88;;;11.60;93.60;;;;;;5133320;28;20087;-77
2023/01/06 01:12:08;;;;;;;5.47;2.50;;;11.70;93.50;;;;;;5134417;28;20035;-77
2023/01/06 01:14:36;;;;;;;2.83;1.85;;;11.60;93.40;;;;;;5117166;28;20103;-77
2023/01/06 01:17:02;;;;;;;3.95;1.83;;;11.70;93.70;;;;;;5133208;28;20035;-77
2023/01/06 01:19:28;;;;;;;4.65;2.25;;;11.70;93.30;;;;;;5134221;28;20026;-77
2023/01/06 01:21:54;;;;;;;6.20;2.40;;;11.70;93.40;;;;;;5115604;28;20034;-78
2023/01/06 01:24:20;;;;;;;3.72;1.88;;;11.60;93.30;;;;;;5133164;28;20051;-77
2023/01/06 01:26:46;;;;;;;4.55;1.80;;;11.70;93.30;;;;;;5134078;28;20024;-78
2023/01/06 01:29:13;;;;;;;3.25;1.70;;;11.70;93.30;;;;;;5115967;28;20048;-78
2023/01/06 01:31:40;;;;;;;6.25;2.03;;;11.60;93.30;;;;;;5134056;28;20020;-78
2023/01/06 01:34:05;;;;;;;3.83;1.80;;;11.60;93.30;;;;;;5133012;28;20043;-78
2023/01/06 01:36:31;;;;;;;5.75;2.30;;;11.60;93.30;;;;;;5134008;28;20035;-78
2023/01/06 01:38:57;;;;;;;7.07;1.50;;;11.60;93.20;;;;;;5133951;28;20027;-78
2023/01/06 01:41:24;;;;;;;3.67;1.50;;;11.60;93.10;;;;;;5132867;28;20015;-78
2023/01/06 01:43:55;;;;;;;4.00;1.77;;;11.70;93.10;;;;;;5132928;28;20020;-78
2023/01/06 01:46:32;;;;;;;5.43;1.70;;;11.60;93.00;;;;;;5134149;28;20034;-78
2023/01/06 01:49:13;;;;;;;4.82;1.45;;;11.60;93.00;;;;;;5132983;28;20035;-78
2023/01/06 01:51:44;;;;;;;4.68;1.40;;;11.70;93.00;;;;;;5133901;28;20043;-77
2023/01/06 01:54:18;;;;;;;3.42;1.30;;;11.60;93.00;;;;;;5132836;28;20091;-78
2023/01/06 01:56:48;;;;;;;4.05;1.30;;;11.60;92.90;;;;;;5133838;28;20057;-77
2023/01/06 01:59:25;;;;;;;4.18;1.58;;;11.60;92.70;;;;;;5133831;28;20094;-77
2023/01/06 02:01:51;;;;;;;2.35;1.45;;;11.60;92.90;;;;;;5133734;28;20028;-78
2023/01/06 02:04:18;;;;;;;4.70;1.13;;;11.60;92.70;;;;;;5115792;28;20451;-77
2023/01/06 02:06:47;;;;;;;3.53;1.42;;;11.60;92.70;;;;;;5133777;28;20034;-78
2023/01/06 02:09:50;;;;;;;2.05;1.17;;;11.60;92.60;;;;;;5133640;28;20024;-77
2023/01/06 02:12:16;;;;;;;6.45;1.60;;;11.50;92.50;;;;;;5132785;28;20024;-78
2023/01/06 02:14:42;;;;;;;3.30;1.67;;;11.50;92.50;;;;;;5132797;28;20047;-78
2023/01/06 02:17:38;;;;;;;2.13;1.25;;;11.50;92.40;;;;;;5132641;28;20031;-78
2023/01/06 02:20:32;;;;;;;2.65;1.08;;;11.60;92.50;;;;;;5133602;28;20063;-78
2023/01/06 02:23:16;;;;;;;3.90;1.42;;;11.60;92.30;;;;;;5132574;28;20050;-78
2023/01/06 02:26:03;;;;;;;3.10;1.10;;;11.50;92.40;;;;;;5132599;28;20032;-78
2023/01/06 02:28:52;;;;;;;2.17;1.23;;;11.60;92.30;;;;;;5132306;28;20054;-77
2023/01/06 02:31:30;;;;;;;3.03;1.20;;;11.50;92.40;;;;;;5133526;28;20039;-78
2023/01/06 02:34:19;;;;;;;2.50;1.40;;;11.60;92.40;;;;;;5134078;28;20047;-78
2023/01/06 02:37:06;;;;;;;4.20;1.90;;;11.60;92.30;;;;;;5136350;28;20390;-78
2023/01/06 02:39:46;;;;;;;6.05;1.40;;;11.60;92.10;;;;;;5136281;28;20053;-78
2023/01/06 02:42:50;;;;;;;2.92;1.27;;;11.60;92.10;;;;;;5136089;28;20032;-77
2023/01/06 02:45:26;;;;;;;3.65;1.42;;;11.50;92.10;;;;;;5137087;28;20531;-77
2023/01/06 02:47:58;;;;;;;3.05;1.30;;;11.60;92.20;;;;;;5137120;28;20047;-77
2023/01/06 02:50:32;;;;;;;4.80;1.30;;;11.50;92.20;;;;;;5137094;28;20371;-77
2023/01/06 02:53:29;;;;;;;4.60;1.40;;;11.50;92.20;;;;;;5135935;28;20032;-77
2023/01/06 02:55:57;;;;;;;2.05;1.00;;;11.50;91.90;;;;;;5136931;28;20038;-78
2023/01/06 02:58:25;;;;;;;2.90;1.27;;;11.50;91.90;;;;;;5135898;28;20085;-77
2023/01/06 03:01:02;;;;;;;3.33;1.25;;;11.50;91.90;;;;;;5136723;28;20050;-77
2023/01/06 03:03:32;;;;;;;3.30;1.20;;;11.50;92.00;;;;;;5135873;28;20020;-77
2023/01/06 03:06:06;;;;;;;3.95;1.20;;;11.50;91.80;;;;;;5136722;28;20045;-78
2023/01/06 03:08:33;;;;;;;2.17;1.25;;;11.50;91.80;;;;;;5135699;28;20023;-77
2023/01/06 03:11:01;;;;;;;1.17;0.80;;;11.50;91.70;;;;;;5135607;28;20482;-78
2023/01/06 03:13:32;;;;;;;2.05;0.98;;;11.50;91.60;;;;;;5135572;28;20016;-77
2023/01/06 03:15:57;;;;;;;5.43;1.40;;;11.50;91.70;;;;;;5136640;28;20087;-77
2023/01/06 03:18:23;;;;;;;2.95;0.93;;;11.50;91.40;;;;;;5135601;28;20024;-78
2023/01/06 03:20:52;;;;;;;1.17;0.70;;;11.50;91.30;;;;;;5136332;28;20032;-78
2023/01/06 03:23:19;;;;;;;1.73;0.88;;;11.50;91.30;;;;;;5136294;28;20420;-77
2023/01/06 03:25:44;;;;;;;2.30;0.90;;;11.50;91.20;;;;;;5135338;28;20022;-77
2023/01/06 03:28:10;;;;;;;2.08;0.82;;;11.50;91.20;;;;;;5118009;28;20032;-77
2023/01/06 03:30:46;;;;;;;1.70;0.75;;;11.50;91.10;;;;;;5118248;28;20170;-77
2023/01/06 03:33:28;;;;;;;1.95;0.90;;;11.50;91.00;;;;;;5136249;28;20030;-77
2023/01/06 03:36:07;;;;;;;1.43;0.70;;;11.50;91.30;;;;;;5136024;28;20062;-77
2023/01/06 03:39:02;;;;;;;1.67;0.90;;;11.50;90.90;;;;;;5136212;28;20317;-77
2023/01/06 03:44:52;;;;;;;3.83;1.00;;;11.50;90.90;;;;;;5136192;28;20031;-78
2023/01/06 03:47:38;;;;;;;1.92;0.55;;;11.50;90.80;;;;;;5134782;28;20016;-78
2023/01/06 03:50:31;;;;;;;3.22;0.93;;;11.50;90.80;;;;;;5135923;28;20094;-77
2023/01/06 03:53:38;;;;;;;3.97;0.88;;;11.50;90.70;;;;;;5134867;28;20474;-78
2023/01/06 03:56:29;;;;;;;3.58;0.90;;;11.50;90.70;;;;;;5106583;28;20130;-77
2023/01/06 03:58:59;;;;;;;2.03;0.70;;;11.50;90.50;;;;;;5120657;28;20474;-77
2023/01/06 04:01:25;;;;;;;1.30;0.88;;;11.50;90.50;;;;;;5135401;28;20031;-78
2023/01/06 04:03:53;;;;;;;1.42;0.77;;;11.50;90.60;;;;;;5135633;28;20080;-78
2023/01/06 04:06:19;;;;;;;2.60;1.17;;;11.50;90.60;;;;;;5117595;28;20031;-78
2023/01/06 04:08:44;;;;;;;4.03;0.90;;;11.50;90.50;;;;;;5135431;28;20020;-78
2023/01/06 04:12:37;;;;;;;1.98;0.95;;;11.50;90.40;;;;;;5134499;28;20072;-77
2023/01/06 04:13:56;;;;;;;3.03;1.00;;;11.50;90.40;;;;;;5135376;28;20053;-78
2023/01/06 04:16:21;;;;;;;4.38;0.80;;;11.50;90.60;;;;;;5134448;28;20051;-78
2023/01/06 04:18:47;;;;;;;3.72;1.10;;;11.50;90.30;;;;;;5134394;28;20028;-77
2023/01/06 04:21:13;;;;;;;4.43;0.88;;;11.50;90.50;;;;;;5135184;28;20032;-77
2023/01/06 04:23:38;;;;;;;4.22;1.88;;;11.50;90.50;;;;;;5134122;28;20019;-80
2023/01/06 04:26:04;;;;;;;1.67;0.80;;;11.50;90.60;;;;;;5135149;28;20028;-78
2023/01/06 04:28:30;;;;;;;3.47;0.80;;;11.50;90.60;;;;;;5134944;28;20049;-78
2023/01/06 04:31:00;;;;;;;2.13;0.70;;;11.50;90.70;;;;;;5117157;28;20047;-78
2023/01/06 04:33:26;;;;;;;0.98;0.50;;;11.50;90.50;;;;;;5133980;28;20095;-79
2023/01/06 04:35:52;;;;;;;0.45;0.45;;;11.50;90.70;;;;;;5134968;28;20088;-78
2023/01/06 04:38:18;;;;;;;4.15;0.80;;;11.50;90.70;;;;;;5134944;28;20034;-79
2023/01/06 04:40:44;;;;;;;3.67;0.95;;;11.50;90.80;;;;;;5133837;28;20020;-78
2023/01/06 04:43:14;;;;;;;1.25;0.63;;;11.50;90.90;;;;;;5133799;28;20123;-78
2023/01/06 04:45:41;;;;;;;4.43;0.98;;;11.50;91.00;;;;;;5133859;28;20028;-78
2023/01/06 04:48:08;;;;;;;3.55;1.00;;;11.50;91.20;;;;;;5116698;28;20109;-78
2023/01/06 04:50:34;;;;;;;1.30;0.60;;;11.50;91.10;;;;;;5134709;28;20382;-77
2023/01/06 04:52:59;;;;;;;3.72;1.02;;;11.40;91.10;;;;;;5134637;28;20028;-78
2023/01/06 04:55:25;;;;;;;3.63;0.90;;;11.40;91.20;;;;;;5134635;28;20080;-81
2023/01/06 04:57:51;;;;;;;2.63;0.98;;;11.40;91.20;;;;;;5134537;28;20034;-82
2023/01/06 05:00:18;;;;;;;2.03;0.95;;;11.40;91.20;;;;;;5133495;28;20016;-82
2023/01/06 05:02:44;;;;;;;1.95;0.90;;;11.40;91.20;;;;;;5134434;28;20026;-82
2023/01/06 05:05:10;;;;;;;1.98;0.85;;;11.40;91.30;;;;;;5133638;28;20028;-82
2023/01/06 05:07:35;;;;;;;2.63;0.75;;;11.40;91.30;;;;;;5134367;28;20106;-81
2023/01/06 05:10:03;;;;;;;1.55;0.90;;;11.40;91.30;;;;;;5133461;28;20040;-82
2023/01/06 05:12:31;;;;;;;2.38;1.08;;;11.40;91.40;;;;;;5116343;28;20047;-82
2023/01/06 05:14:56;;;;;;;2.88;0.80;;;11.40;91.50;;;;;;5134452;28;20091;-82
2023/01/06 05:17:22;;;;;;;2.08;0.95;;;11.40;91.50;;;;;;5133236;28;20036;-82
2023/01/06 05:19:47;;;;;;;3.63;0.88;;;11.40;91.50;;;;;;5133297;28;20035;-82
2023/01/06 05:22:13;;;;;;;1.38;0.85;;;11.40;91.40;;;;;;5134240;28;20053;-82
2023/01/06 05:24:38;;;;;;;1.15;0.80;;;11.40;91.20;;;;;;5134179;28;20031;-82
2023/01/06 05:27:04;;;;;;;0.82;0.68;;;11.50;91.60;;;;;;5116227;28;20034;-82
2023/01/06 05:29:30;;;;;;;0.93;0.50;;;11.50;91.20;;;;;;5116030;28;20048;-82
2023/01/06 05:31:56;;;;;;;1.58;0.60;;;11.50;91.00;;;;;;5133015;28;20036;-81
2023/01/06 05:34:21;;;;;;;0.65;0.55;;;11.50;91.00;;;;;;5134042;28;20032;-81
2023/01/06 05:36:47;;;;;;;1.65;0.98;;;11.50;90.90;;;;;;5134052;28;20035;-81
2023/01/06 05:39:13;;;;;;;0.80;0.50;;;11.50;90.80;;;;;;5133959;28;20023;-82
2023/01/06 05:41:38;;;;;;;4.32;0.80;;;11.50;91.20;;;;;;5133862;28;20542;-82
2023/01/06 05:44:04;;;;;;;2.22;0.77;;;11.50;90.90;;;;;;5133921;28;20024;-82
2023/01/06 05:46:29;;;;;;;0.90;0.60;;;11.60;90.80;;;;;;5133908;28;20106;-82
2023/01/06 05:48:55;;;;;;;3.83;0.73;;;11.50;90.80;;;;;;5132882;28;20023;-82
2023/01/06 05:51:21;;;;;;;2.40;0.75;;;11.60;90.70;;;;;;5133849;28;20030;-81
2023/01/06 05:53:47;;;;;;;0.93;0.60;;;11.60;90.60;;;;;;5099014;28;20078;-81
2023/01/06 05:56:17;;;;;;;1.40;0.40;;;11.60;90.60;;;;;;5133839;28;20079;-81
2023/01/06 05:58:51;;;;;;;2.67;0.65;;;11.60;90.60;;;;;;5133753;28;20027;-81
2023/01/06 06:01:25;;;;;;;0.68;0.50;;;11.60;90.70;;;;;;5133726;28;20027;-82
2023/01/06 06:03:52;;;;;;;2.75;0.77;;;11.60;90.80;;;;;;5133825;28;20020;-82
2023/01/06 06:06:19;;;;;;;0.80;0.60;;;11.60;90.80;;;;;;5132678;28;20092;-81
2023/01/06 06:08:44;;;;;;;0.82;0.57;;;11.60;90.70;;;;;;5134938;28;20035;-81
2023/01/06 06:11:12;;;;;;;0.98;0.60;;;11.60;90.80;;;;;;5119951;28;20042;-81
2023/01/06 06:13:43;;;;;;;0.73;0.55;;;11.60;90.90;;;;;;5136818;28;20020;-81
2023/01/06 06:16:11;;;;;;;2.13;0.60;;;11.50;90.80;;;;;;5136760;28;20034;-81
2023/01/06 06:18:41;;;;;;;2.08;0.80;;;11.60;90.80;;;;;;5137694;28;20111;-81
2023/01/06 06:21:08;;;;;;;1.58;0.70;;;11.60;90.70;;;;;;5137640;28;20023;-81
2023/01/06 06:23:34;;;;;;;2.28;1.10;;;11.60;90.80;;;;;;5136537;28;20027;-81
2023/01/06 06:26:00;;;;;;;2.13;0.80;;;11.60;91.00;;;;;;5137559;28;20028;-81
2023/01/06 06:28:28;;;;;;;1.33;0.80;;;11.60;91.30;;;;;;5136249;28;20059;-80
2023/01/06 06:30:54;;;;;;;2.78;0.75;;;11.60;91.40;;;;;;5137400;28;20023;-81
2023/01/06 06:33:19;;;;;;;2.80;0.73;;;11.50;91.50;;;;;;5136506;28;20099;-81
2023/01/06 06:35:55;;;;;;;1.83;0.68;;;11.50;91.30;;;;;;5136362;28;20023;-81
2023/01/06 06:38:20;;;;;;;3.55;0.90;;;11.50;91.90;;;;;;5137349;28;20066;-82
2023/01/06 06:40:46;;;;;;;2.42;0.98;;;11.50;91.60;;;;;;5136210;28;20032;-81
2023/01/06 06:43:12;;;;;;;2.47;1.00;;;11.50;91.60;;;;;;5137322;28;20024;-82
2023/01/06 06:45:37;;;;;;;1.70;1.02;;;11.50;91.40;;;;;;5102183;28;20027;-82
2023/01/06 06:48:03;;;;;;;2.83;0.73;;;11.50;91.50;;;;;;5136049;28;20034;-82
2023/01/06 06:50:29;;;;;;;2.20;0.77;;;11.50;91.50;;;;;;5137227;28;20030;-81
2023/01/06 06:52:54;;;;;;;2.60;0.80;;;11.50;91.60;;;;;;5102007;28;20031;-81
2023/01/06 06:55:20;;;;;;;1.17;0.80;;;11.50;91.50;;;;;;5136941;28;20035;-82
2023/01/06 06:57:46;;;;;;;2.65;0.80;;;11.50;91.30;;;;;;5135832;28;20032;-81
2023/01/06 07:00:12;;;;;;;2.60;1.20;;;11.50;91.40;;;;;;5135811;28;20038;-81
2023/01/06 07:02:37;;;;;;;1.55;1.00;;;11.50;91.40;;;;;;5101811;28;20049;-81
2023/01/06 07:05:03;;;;;;;1.40;0.82;;;11.50;91.30;;;;;;5135965;28;20023;-81
2023/01/06 07:07:29;;;;;;;2.33;0.82;;;11.50;91.30;;;;;;5118785;28;20100;-81
2023/01/06 07:09:54;;;;;;;1.00;0.75;;;11.50;91.60;;;;;;5118516;28;20023;-81
2023/01/06 07:12:20;;;;;;;2.50;1.00;;;11.50;91.70;;;;;;5135844;28;20031;-81
2023/01/06 07:14:46;;;;;;;4.10;1.13;;;11.50;91.80;;;;;;5118556;28;20031;-81
2023/01/06 07:17:11;;;;;;;1.95;0.90;;;11.50;91.80;;;;;;5136506;28;20042;-82
2023/01/06 07:19:37;;;;;;;1.50;0.88;;;11.60;91.80;;;;;;5117778;28;20038;-81
2023/01/06 07:22:02;;;;;;;2.03;0.95;;;11.50;91.80;;;;;;5117893;28;20053;-81
2023/01/06 07:24:28;;;;;;;1.50;0.90;;;11.50;91.90;;;;;;5118480;28;20020;-81
2023/01/06 07:26:54;;;;;;;2.03;1.10;;;11.60;92.00;;;;;;5135451;28;20027;-81
2023/01/06 07:29:19;;;;;;;4.80;1.10;;;11.60;92.10;;;;;;5135184;28;20055;-81
2023/01/06 07:31:45;;;;;;;2.97;1.25;;;11.50;92.30;;;;;;5136235;28;20371;-81
2023/01/06 07:34:10;;;;;;;5.00;0.73;;;11.50;92.50;;;;;;5118169;28;20032;-81
2023/01/06 07:36:36;;;;;;;2.08;1.00;;;11.50;92.50;;;;;;5135100;28;20035;-81
2023/01/06 07:39:02;;;;;;;1.58;0.82;;;11.50;92.70;;;;;;5135210;28;20054;-75
2023/01/06 07:41:29;;;;;;;2.72;1.23;;;11.50;93.00;;;;;;5118056;28;20034;-75
2023/01/06 07:43:55;;;;;;;1.65;1.08;;;11.50;93.30;;;;;;5135101;28;20024;-75
2023/01/06 07:46:20;;;;;;;2.30;1.20;;;11.40;93.70;;;;;;5117953;28;20020;-75
2023/01/06 07:48:46;;;;;;;2.00;1.30;;;11.30;93.90;;;;;;5134998;28;20023;-75
2023/01/06 07:51:12;;;;;;;2.65;1.38;;;11.30;94.00;;;;;;5117972;28;20054;-75
2023/01/06 07:53:37;;;;;;;2.83;1.35;;;11.30;94.10;;;;;;5135014;28;20028;-76
2023/01/06 07:56:03;;;;;;;3.15;1.30;;;11.30;94.10;;;;;;5134851;28;20043;-75
2023/01/06 07:58:29;;;;;;;1.63;1.20;;;11.30;94.20;;;;;;5117682;28;20032;-75
2023/01/06 08:00:55;;;;;;;3.60;1.25;;;11.30;94.30;;;;;;5134670;28;20035;-74
2023/01/06 08:03:20;;;;;;;2.13;1.15;;;11.30;94.30;;;;;;5117610;28;20020;-75
2023/01/06 08:05:46;;;;;;;3.05;1.50;;;11.30;94.30;;;;;;5117525;28;20545;-76
2023/01/06 08:08:12;;;;;;;3.67;1.38;;;11.30;94.20;;;;;;5117434;28;20092;-75
2023/01/06 08:10:39;;;;;;;1.85;1.10;;;11.30;94.10;;;;;;5134550;28;20020;-75
2023/01/06 08:13:04;;;;;;;2.42;1.23;;;11.30;94.10;;;;;;5135440;28;20028;-75
2023/01/06 08:15:30;;;;;;;2.47;1.48;;;11.40;94.00;;;;;;5117328;28;20069;-75
2023/01/06 08:17:55;;;;;;;2.28;1.33;;;11.40;94.20;;;;;;5100454;28;20023;-75
2023/01/06 08:20:22;;;;;;;2.67;1.15;;;11.30;94.60;;;;;;5100458;28;20031;-74
2023/01/06 08:22:47;;;;;;;1.98;1.20;;;11.30;94.80;;;;;;5134144;28;20020;-75
2023/01/06 08:25:13;;;;;;;1.88;1.38;;;11.30;95.00;;;;;;5100298;28;20024;-74
2023/01/06 08:27:39;;;;;;;2.13;1.50;;;11.30;95.20;;;;;;5134224;28;20034;-75
2023/01/06 08:30:05;;;;;;;2.40;1.60;;;11.30;95.20;;;;;;5116910;28;20138;-74
2023/01/06 08:32:31;;;;;;;3.22;1.77;;;11.40;95.20;;;;;;5116944;28;20111;-74
2023/01/06 08:34:56;;;;;;;2.75;1.50;;;11.40;95.00;;;;;;5100077;28;20024;-75
2023/01/06 08:37:22;;;;;;;2.75;1.80;;;11.40;95.00;;;;;;5116934;28;20070;-75
2023/01/06 08:39:47;;;;;;;2.55;1.60;;;11.40;94.90;;;;;;5133999;28;20044;-74
2023/01/06 08:42:13;;;;;;;3.72;1.90;;;11.50;94.70;;;;;;5134767;28;20501;-75
2023/01/06 08:44:39;;;;;;;2.28;1.42;;;11.50;94.60;;;;;;5100003;28;20031;-74
2023/01/06 08:47:05;;;;;;;3.60;1.83;;;11.50;94.50;;;;;;5133901;28;20414;-74
2023/01/06 08:49:30;;;;;;;3.50;1.70;;;11.50;94.50;;;;;;5133889;28;20158;-74
2023/01/06 08:51:56;;;;;;;4.78;1.83;;;11.50;94.50;;;;;;5133675;28;20056;-74
2023/01/06 08:54:22;;;;;;;3.58;2.15;;;11.50;94.40;;;;;;5116680;28;20020;-75
2023/01/06 08:56:47;;;;;;;4.45;2.33;;;11.60;94.40;;;;;;5116701;28;20542;-75
2023/01/06 08:59:15;;;;;;;5.60;2.42;;;11.60;94.10;;;;;;5116623;28;20039;-75
2023/01/06 09:01:42;;;;;;;3.47;2.40;;;11.60;94.00;;;;;;5134472;28;20051;-75
2023/01/06 09:04:09;;;;;;;3.72;2.25;;;11.60;93.90;;;;;;5099748;28;20020;-75
2023/01/06 09:06:35;;;;;;;3.50;2.05;;;11.60;93.90;;;;;;5116643;28;20030;-75
2023/01/06 09:09:03;;;;;;;3.38;2.40;;;11.60;93.80;;;;;;5116284;28;20019;-75
2023/01/06 09:11:28;;;;;;;3.55;2.25;;;11.60;93.90;;;;;;5133249;28;20027;-75
2023/01/06 09:13:54;;;;;;;6.28;2.60;;;11.60;93.80;;;;;;5133401;28;20030;-75
2023/01/06 09:16:20;;;;;;;4.85;2.70;;;11.60;93.90;;;;;;5134263;28;20031;-75
2023/01/06 09:18:49;;;;;;;4.75;2.67;;;11.60;94.30;;;;;;5133337;28;20031;-75
2023/01/06 09:21:22;;;;;;;4.47;2.63;;;11.60;93.90;;;;;;5133234;28;20034;-75
2023/01/06 09:23:48;;;;;;;6.22;2.92;;;11.60;93.90;;;;;;5133166;28;20024;-75
2023/01/06 09:26:15;;;;;;;3.83;2.72;;;11.70;94.00;;;;;;5134136;28;20027;-75
2023/01/06 09:28:41;;;;;;;6.03;3.15;;;11.70;93.90;;;;;;5133036;28;20104;-75
2023/01/06 09:31:07;;;;;;;4.68;2.80;;;11.80;93.80;;;;;;5133057;28;20043;-75
2023/01/06 09:33:33;;;;;;;5.25;2.97;;;11.80;93.80;;;;;;5132999;28;20031;-75
2023/01/06 09:35:59;;;;;;;4.68;2.83;;;11.80;93.70;;;;;;5133129;28;20054;-75
2023/01/06 09:38:26;;;;;;;4.68;2.70;;;11.90;93.70;;;;;;5133963;28;20031;-74
2023/01/06 09:41:25;;;;;;;5.53;3.30;;;11.90;93.50;;;;;;5099642;28;20023;-75
2023/01/06 09:44:09;;;;;;;4.60;3.00;;;11.90;93.40;;;;;;5132301;28;20069;-74
2023/01/06 09:46:38;;;;;;;6.55;2.95;;;11.90;93.30;;;;;;5134111;28;20424;-74
2023/01/06 09:49:24;;;;;;;6.70;3.50;;;11.90;93.30;;;;;;5132872;28;20023;-74
2023/01/06 09:51:56;;;;;;;6.30;3.42;;;11.90;93.30;;;;;;5132891;28;20123;-74
2023/01/06 09:54:44;;;;;;;5.38;3.45;;;11.90;93.30;;;;;;5132925;28;20034;-74
2023/01/06 09:57:15;;;;;;;7.10;3.58;;;12.00;93.30;;;;;;5133902;28;20046;-74
2023/01/06 09:59:47;;;;;;;6.38;3.67;;;12.00;93.30;;;;;;5132844;28;20050;-75
2023/01/06 10:02:20;;;;;;;5.43;3.35;;;12.00;93.10;;;;;;5133808;28;20023;-74
2023/01/06 10:04:45;;;;;;;6.15;3.70;;;12.10;93.00;;;;;;5133798;28;20027;-74
2023/01/06 10:07:29;;;;;;;6.07;4.00;;;12.40;92.90;;;;;;5132844;28;20020;-74
2023/01/06 10:10:23;;;;;;;6.10;3.88;;;12.80;91.90;;;;;;5133598;28;20031;-74
2023/01/06 10:13:01;;;;;;;6.30;3.90;;;12.90;91.20;;;;;;5132755;28;20451;-75
2023/01/06 10:15:50;;;;;;;6.13;3.78;;;13.00;90.60;;;;;;5132646;28;20029;-74
2023/01/06 10:18:48;;;;;;;7.03;3.78;;;13.00;90.70;;;;;;5132608;28;20027;-75
2023/01/06 10:21:35;;;;;;;5.65;3.60;;;12.90;90.90;;;;;;5132462;28;20054;-75
2023/01/06 10:24:29;;;;;;;7.70;3.63;;;12.80;90.60;;;;;;5133604;28;20048;-74
2023/01/06 10:26:58;;;;;;;7.53;4.32;;;12.70;90.50;;;;;;5133705;28;20423;-75
2023/01/06 10:29:30;;;;;;;8.13;4.05;;;12.70;90.60;;;;;;5132384;28;20107;-74
2023/01/06 10:31:58;;;;;;;7.63;4.68;;;13.00;90.50;;;;;;5133652;28;20020;-75
2023/01/06 10:34:26;;;;;;;6.40;4.00;;;13.10;90.10;;;;;;5132539;28;20024;-74
2023/01/06 10:37:18;;;;;;;6.85;3.97;;;13.10;89.80;;;;;;5132450;28;20047;-75
2023/01/06 10:39:49;;;;;;;8.30;4.00;;;13.00;90.00;;;;;;5133524;28;20023;-75
2023/01/06 10:43:02;;;;;;;7.53;4.18;;;13.00;90.20;;;;;;5132384;28;20054;-75
2023/01/06 10:45:37;;;;;;;6.47;4.00;;;13.10;90.10;;;;;;5131176;28;20047;-75
2023/01/06 10:48:04;;;;;;;6.70;4.03;;;13.20;90.20;;;;;;5132315;28;20011;-74
2023/01/06 10:50:33;;;;;;;8.57;4.50;;;13.30;89.50;;;;;;5132347;28;20020;-75
2023/01/06 10:52:58;;;;;;;6.10;3.45;;;13.30;88.50;;;;;;5133327;28;20030;-75
2023/01/06 10:55:24;;;;;;;7.70;3.88;;;13.30;88.20;;;;;;5134449;28;20389;-75
2023/01/06 10:57:51;;;;;;;6.65;3.33;;;13.30;88.30;;;;;;5136875;28;20075;-75
2023/01/06 11:00:21;;;;;;;6.53;2.95;;;13.30;88.00;;;;;;5136934;28;20054;-75
2023/01/06 11:03:04;;;;;;;8.32;3.83;;;13.30;86.80;;;;;;5135793;28;20307;-74
2023/01/06 11:05:32;;;;;;;6.32;3.53;;;13.30;86.20;;;;;;5136838;27;20020;-74
2023/01/06 11:08:10;;;;;;;5.25;3.65;;;13.30;87.40;;;;;;5136723;28;20023;-74
2023/01/06 11:10:40;;;;;;;5.63;3.20;;;13.40;87.80;;;;;;5135708;28;20020;-75
2023/01/06 11:13:30;;;;;;;6.05;3.78;;;13.40;87.80;;;;;;5136847;28;20031;-75
2023/01/06 11:16:27;;;;;;;5.85;3.00;;;13.50;87.30;;;;;;5136806;28;20024;-75
2023/01/06 11:18:55;;;;;;;6.55;3.00;;;13.50;86.20;;;;;;5135463;28;20081;-75
2023/01/06 11:21:21;;;;;;;6.88;2.75;;;13.40;85.00;;;;;;5136413;28;20087;-76
2023/01/06 11:23:48;;;;;;;5.10;2.72;;;13.40;84.00;;;;;;5135478;28;20027;-75
2023/01/06 11:26:42;;;;;;;6.38;1.50;;;13.30;84.60;;;;;;5135412;28;20019;-75
2023/01/06 11:29:18;;;;;;;3.53;1.98;;;13.20;81.80;;;;;;5136159;28;20019;-75
2023/01/06 11:31:47;;;;;;;4.97;1.73;;;13.10;83.00;;;;;;5135388;28;20482;-75
2023/01/06 11:34:22;;;;;;;3.90;1.70;;;13.20;83.10;;;;;;5118218;28;20024;-75
2023/01/06 11:36:49;;;;;;;5.82;2.05;;;13.20;82.00;;;;;;5135278;28;20047;-75
2023/01/06 11:39:33;;;;;;;4.00;1.80;;;13.20;82.40;;;;;;5118200;28;20076;-75
2023/01/06 11:42:12;;;;;;;1.83;1.38;;;13.10;81.70;;;;;;5135050;28;20019;-75
2023/01/06 11:44:40;;;;;;;4.45;1.70;;;13.10;82.10;;;;;;5135126;28;20016;-74
2023/01/06 11:47:23;;;;;;;3.05;1.90;;;13.10;82.10;;;;;;5136019;28;20034;-75
2023/01/06 11:49:54;;;;;;;3.03;1.77;;;13.10;82.70;;;;;;5136024;28;20429;-75
2023/01/06 11:52:23;;;;;;;3.83;1.90;;;13.10;83.10;;;;;;5135971;28;20030;-75
2023/01/06 11:55:20;;;;;;;4.13;2.13;;;13.10;83.10;;;;;;5134832;28;20023;-74
2023/01/06 11:58:01;;;;;;;5.45;2.30;;;13.10;83.80;;;;;;5134472;28;20096;-74
2023/01/06 12:00:51;;;;;;;4.10;1.98;;;13.20;83.90;;;;;;5135744;28;20077;-75
2023/01/06 12:03:31;;;;;;;4.15;2.05;;;13.20;84.10;;;;;;5134596;28;20049;-75
2023/01/06 12:06:03;;;;;;;4.75;2.10;;;13.30;84.10;;;;;;5135039;28;20478;-74
2023/01/06 12:08:54;;;;;;;4.95;2.83;;;13.40;84.50;;;;;;5135649;28;20026;-74
2023/01/06 12:11:32;;;;;;;5.03;2.75;;;13.50;84.20;;;;;;5134566;28;20073;-75
2023/01/06 12:13:57;;;;;;;5.78;2.20;;;13.50;84.60;;;;;;5135584;28;20027;-75
2023/01/06 12:16:42;;;;;;;6.15;2.65;;;13.60;84.50;;;;;;5117294;28;20031;-75
2023/01/06 12:19:24;;;;;;;4.97;2.30;;;13.60;84.40;;;;;;5134217;28;20424;-74
2023/01/06 12:21:50;;;;;;;4.57;2.42;;;13.80;84.20;;;;;;5134201;28;20024;-74
2023/01/06 12:24:18;;;;;;;7.25;2.60;;;13.90;84.40;;;;;;5134330;28;20153;-73
2023/01/06 12:26:45;;;;;;;5.88;2.40;;;14.00;83.60;;;;;;5134189;28;20026;-74
2023/01/06 12:29:18;;;;;;;5.05;2.55;;;14.20;83.80;;;;;;5133985;28;20042;-74
2023/01/06 12:32:28;;;;;;;4.45;2.35;;;14.40;83.60;;;;;;5134119;28;20035;-75
2023/01/06 12:34:59;;;;;;;6.53;2.80;;;14.60;82.60;;;;;;5129314;28;20046;-75
2023/01/06 12:37:37;;;;;;;6.03;2.40;;;15.00;81.60;;;;;;5135168;28;20024;-74
2023/01/06 12:40:09;;;;;;;5.60;3.22;;;15.40;78.80;;;;;;5133990;28;20047;-75
2023/01/06 12:43:12;;;;;;;6.03;3.70;;;15.70;75.20;;;;;;5133779;28;20561;-75
2023/01/06 12:46:01;;;;;;;5.00;2.67;;;16.00;72.80;;;;;;5133737;28;20028;-75
2023/01/06 12:48:51;;;;;;;2.85;2.13;;;16.40;71.10;;;;;;5134936;28;20012;-76
2023/01/06 12:51:38;;;;;;;4.35;2.40;;;16.70;71.10;;;;;;5133789;28;20023;-76
2023/01/06 12:54:10;;;;;;;4.68;3.42;;;16.70;68.90;;;;;;5133775;28;20024;-75
2023/01/06 12:57:13;;;;;;;4.57;2.70;;;16.50;70.20;;;;;;5134662;28;20023;-75
2023/01/06 12:59:57;;;;;;;4.32;2.78;;;16.30;68.90;;;;;;5134513;28;20038;-75
2023/01/06 13:02:51;;;;;;;5.63;2.47;;;16.10;67.90;;;;;;5134461;28;20032;-75
2023/01/06 13:05:42;;;;;;;6.30;3.30;;;16.00;68.40;;;;;;5134455;28;20026;-74
2023/01/06 13:08:28;;;;;;;4.20;2.97;;;15.70;67.50;;;;;;5094895;28;20039;-75
2023/01/06 13:11:19;;;;;;;6.75;3.08;;;15.50;68.10;;;;;;5134435;28;20105;-75
2023/01/06 13:14:10;;;;;;;6.07;3.33;;;15.40;68.60;;;;;;5133437;28;20023;-75